createdAt,value
2023-02-04T00:00:15.311Z,99860.00
2023-02-04T00:02:42.077Z,99855.00
2023-02-04T00:05:10.273Z,99866.00
2023-02-04T00:07:37.100Z,99866.00
2023-02-04T00:10:05.660Z,99865.00
2023-02-04T00:12:32.436Z,99869.00
2023-02-04T00:14:58.864Z,99870.00
2023-02-04T00:17:25.369Z,99873.00
2023-02-04T00:19:51.818Z,99873.00
2023-02-04T00:22:18.670Z,99875.00
2023-02-04T00:24:49.752Z,99878.00
2023-02-04T00:27:16.561Z,99883.00
2023-02-04T00:29:43.073Z,99880.00
2023-02-04T00:32:09.962Z,99880.00
2023-02-04T00:34:36.551Z,99884.00
2023-02-04T00:37:03.186Z,99888.00
2023-02-04T00:39:29.716Z,99897.00
2023-02-04T00:41:56.205Z,99892.00
2023-02-04T00:44:22.705Z,99896.00
2023-02-04T00:46:49.812Z,99906.00
2023-02-04T00:49:16.310Z,99896.00
2023-02-04T00:51:46.450Z,99890.00
2023-02-04T00:54:14.582Z,99891.00
2023-02-04T00:56:41.926Z,99897.00
2023-02-04T00:59:08.792Z,99890.00
2023-02-04T01:01:35.400Z,99903.00
2023-02-04T01:04:01.953Z,99912.00
2023-02-04T01:06:28.489Z,99916.00
2023-02-04T01:08:55.867Z,99921.00
2023-02-04T01:11:23.294Z,99923.00
2023-02-04T01:13:49.799Z,99928.00
2023-02-04T01:16:16.365Z,99929.00
2023-02-04T01:18:44.028Z,99926.00
2023-02-04T01:21:10.597Z,99925.00
2023-02-04T01:23:37.409Z,99923.00
2023-02-04T01:26:04.456Z,99909.00
2023-02-04T01:28:32.048Z,99929.00
2023-02-04T01:30:58.577Z,99937.00
2023-02-04T01:33:25.189Z,99928.00
2023-02-04T01:35:51.632Z,99928.00
2023-02-04T01:38:18.124Z,99939.00
2023-02-04T01:40:44.761Z,99929.00
2023-02-04T01:43:12.378Z,99931.00
2023-02-04T01:45:39.464Z,99933.00
2023-02-04T01:48:07.507Z,99936.00
2023-02-04T01:50:34.861Z,99929.00
2023-02-04T01:53:01.667Z,99929.00
2023-02-04T01:55:31.814Z,99928.00
2023-02-04T01:58:00.011Z,99934.00
2023-02-04T02:00:30.460Z,99938.00
2023-02-04T02:02:58.285Z,99929.00
2023-02-04T02:05:32.818Z,99933.00
2023-02-04T02:08:01.392Z,99936.00
2023-02-04T02:10:28.298Z,99941.00
2023-02-04T02:12:55.721Z,99945.00
2023-02-04T02:15:22.650Z,99951.00
2023-02-04T02:17:50.970Z,99960.00
2023-02-04T02:20:20.332Z,99949.00
2023-02-04T02:23:02.928Z,99948.00
2023-02-04T02:25:31.096Z,99946.00
2023-02-04T02:27:58.987Z,99948.00
2023-02-04T02:30:27.299Z,99944.00
2023-02-04T02:32:54.190Z,99945.00
2023-02-04T02:35:21.631Z,99953.00
2023-02-04T02:37:49.343Z,99944.00
2023-02-04T02:40:16.091Z,99954.00
2023-02-04T02:42:44.959Z,99956.00
2023-02-04T02:45:20.678Z,99953.00
2023-02-04T02:47:47.314Z,99958.00
2023-02-04T02:50:17.390Z,99965.00
2023-02-04T02:52:43.871Z,99962.00
2023-02-04T02:55:19.295Z,99959.00
2023-02-04T02:57:47.171Z,99975.00
2023-02-04T03:00:23.972Z,99976.00
2023-02-04T03:03:22.278Z,99974.00
2023-02-04T03:05:52.497Z,99976.00
2023-02-04T03:08:20.129Z,99975.00
2023-02-04T03:10:47.355Z,99977.00
2023-02-04T03:13:16.098Z,99988.00
2023-02-04T03:15:44.396Z,99978.00
2023-02-04T03:18:12.365Z,99989.00
2023-02-04T03:20:39.952Z,99989.00
2023-02-04T03:23:06.455Z,99999.00
2023-02-04T03:25:33.538Z,99999.00
2023-02-04T03:28:00.363Z,100006.00
2023-02-04T03:30:27.643Z,100018.00
2023-02-04T03:32:55.017Z,100024.00
2023-02-04T03:35:21.638Z,100017.00
2023-02-04T03:37:48.158Z,100021.00
2023-02-04T03:40:14.985Z,100030.00
2023-02-04T03:42:41.462Z,100032.00
2023-02-04T03:45:08.427Z,100031.00
2023-02-04T03:47:34.959Z,100035.00
2023-02-04T03:50:01.474Z,100038.00
2023-02-04T03:52:28.032Z,100037.00
2023-02-04T03:54:54.484Z,100031.00
2023-02-04T03:57:21.681Z,100039.00
2023-02-04T03:59:48.256Z,100032.00
2023-02-04T04:02:14.777Z,100042.00
2023-02-04T04:04:41.292Z,100040.00
2023-02-04T04:07:07.778Z,100037.00
2023-02-04T04:09:34.277Z,100040.00
2023-02-04T04:12:00.932Z,100038.00
2023-02-04T04:14:27.661Z,100034.00
2023-02-04T04:16:54.105Z,100036.00
2023-02-04T04:19:20.600Z,100029.00
2023-02-04T04:21:47.041Z,100042.00
2023-02-04T04:24:13.508Z,100046.00
2023-02-04T04:26:39.980Z,100040.00
2023-02-04T04:29:06.475Z,100050.00
2023-02-04T04:31:33.059Z,100050.00
2023-02-04T04:33:59.827Z,100041.00
2023-02-04T04:36:26.279Z,100049.00
2023-02-04T04:38:52.738Z,100048.00
2023-02-04T04:41:19.226Z,100053.00
2023-02-04T04:43:45.765Z,100055.00
2023-02-04T04:46:12.224Z,100064.00
2023-02-04T04:48:38.953Z,100064.00
2023-02-04T04:51:05.662Z,100062.00
2023-02-04T04:53:32.096Z,100062.00
2023-02-04T04:55:58.604Z,100076.00
2023-02-04T04:58:25.165Z,100070.00
2023-02-04T05:00:51.760Z,100083.00
2023-02-04T05:03:18.336Z,100085.00
2023-02-04T05:05:44.882Z,100079.00
2023-02-04T05:08:14.014Z,100069.00
2023-02-04T05:10:41.160Z,100067.00
2023-02-04T05:13:07.671Z,100068.00
2023-02-04T05:15:34.324Z,100083.00
2023-02-04T05:18:01.053Z,100067.00
2023-02-04T05:20:27.693Z,100070.00
2023-02-04T05:22:55.953Z,100073.00
2023-02-04T05:25:23.292Z,100066.00
2023-02-04T05:27:50.008Z,100060.00
2023-02-04T05:30:16.692Z,100052.00
2023-02-04T05:32:43.230Z,100057.00
2023-02-04T05:35:10.118Z,100068.00
2023-02-04T05:37:36.772Z,100057.00
2023-02-04T05:40:03.917Z,100060.00
2023-02-04T05:42:30.360Z,100077.00
2023-02-04T05:44:56.858Z,100079.00
2023-02-04T05:47:23.424Z,100073.00
2023-02-04T05:49:50.041Z,100075.00
2023-02-04T05:52:16.842Z,100066.00
2023-02-04T05:54:43.364Z,100079.00
2023-02-04T05:57:09.845Z,100077.00
2023-02-04T05:59:36.474Z,100092.00
2023-02-04T06:02:02.962Z,100095.00
2023-02-04T06:04:29.514Z,100097.00
2023-02-04T06:06:55.997Z,100102.00
2023-02-04T06:09:22.492Z,100105.00
2023-02-04T06:11:49.026Z,100110.00
2023-02-04T06:14:15.520Z,100111.00
2023-02-04T06:16:42.006Z,100118.00
2023-02-04T06:19:08.526Z,100132.00
2023-02-04T06:21:35.000Z,100136.00
2023-02-04T06:24:01.532Z,100140.00
2023-02-04T06:26:28.188Z,100142.00
2023-02-04T06:28:54.605Z,100140.00
2023-02-04T06:31:21.155Z,100145.00
2023-02-04T06:33:47.649Z,100148.00
2023-02-04T06:36:14.688Z,100144.00
2023-02-04T06:38:41.173Z,100136.00
2023-02-04T06:41:07.725Z,100148.00
2023-02-04T06:43:34.267Z,100150.00
2023-02-04T06:46:00.843Z,100147.00
2023-02-04T06:48:27.308Z,100145.00
2023-02-04T06:50:53.917Z,100140.00
2023-02-04T06:53:20.640Z,100155.00
2023-02-04T06:55:47.353Z,100157.00
2023-02-04T06:58:13.901Z,100158.00
2023-02-04T07:00:40.359Z,100162.00
2023-02-04T07:03:07.519Z,100161.00
2023-02-04T07:05:34.580Z,100170.00
2023-02-04T07:08:01.540Z,100175.00
2023-02-04T07:10:28.115Z,100189.00
2023-02-04T07:12:54.718Z,100189.00
2023-02-04T07:15:21.244Z,100193.00
2023-02-04T07:17:47.750Z,100196.00
2023-02-04T07:20:14.248Z,100193.00
2023-02-04T07:22:42.207Z,100190.00
2023-02-04T07:25:10.114Z,100193.00
2023-02-04T07:27:36.554Z,100198.00
2023-02-04T07:30:03.130Z,100190.00
2023-02-04T07:32:32.768Z,100192.00
2023-02-04T07:35:00.094Z,100194.00
2023-02-04T07:37:27.071Z,100194.00
2023-02-04T07:39:53.568Z,100210.00
2023-02-04T07:42:20.077Z,100207.00
2023-02-04T07:44:53.309Z,100214.00
2023-02-04T07:47:19.782Z,100223.00
2023-02-04T07:49:46.284Z,100227.00
2023-02-04T07:52:12.768Z,100235.00
2023-02-04T07:54:39.258Z,100241.00
2023-02-04T07:57:05.769Z,100248.00
2023-02-04T07:59:32.271Z,100244.00
2023-02-04T08:01:58.857Z,100235.00
2023-02-04T08:04:25.562Z,100238.00
2023-02-04T08:06:52.080Z,100236.00
2023-02-04T08:09:18.517Z,100237.00
2023-02-04T08:11:44.960Z,100249.00
2023-02-04T08:14:11.475Z,100249.00
2023-02-04T08:16:38.040Z,100259.00
2023-02-04T08:19:04.524Z,100261.00
2023-02-04T08:21:30.989Z,100266.00
2023-02-04T08:23:57.535Z,100269.00
2023-02-04T08:26:24.009Z,100273.00
2023-02-04T08:28:50.576Z,100266.00
2023-02-04T08:31:17.145Z,100271.00
2023-02-04T08:33:43.858Z,100274.00
2023-02-04T08:36:10.421Z,100268.00
2023-02-04T08:38:36.938Z,100267.00
2023-02-04T08:41:03.742Z,100280.00
2023-02-04T08:43:30.312Z,100278.00
2023-02-04T08:45:56.782Z,100269.00
2023-02-04T08:48:23.287Z,100290.00
2023-02-04T08:50:49.833Z,100288.00
2023-02-04T08:53:16.313Z,100284.00
2023-02-04T08:55:42.836Z,100297.00
2023-02-04T08:58:09.374Z,100286.00
2023-02-04T09:00:36.107Z,100288.00
2023-02-04T09:03:02.955Z,100297.00
2023-02-04T09:05:29.446Z,100298.00
2023-02-04T09:07:55.937Z,100291.00
2023-02-04T09:10:22.432Z,100294.00
2023-02-04T09:12:48.945Z,100295.00
2023-02-04T09:15:15.488Z,100297.00
2023-02-04T09:17:43.841Z,100300.00
2023-02-04T09:20:11.123Z,100301.00
2023-02-04T09:22:37.807Z,100295.00
2023-02-04T09:25:04.565Z,100306.00
2023-02-04T09:27:31.148Z,100297.00
2023-02-04T09:29:57.698Z,100302.00
2023-02-04T09:32:24.198Z,100306.00
2023-02-04T09:34:50.683Z,100303.00
2023-02-04T09:37:17.895Z,100319.00
2023-02-04T09:39:44.515Z,100321.00
2023-02-04T09:42:15.142Z,100318.00
2023-02-04T09:44:42.115Z,100333.00
2023-02-04T09:47:11.963Z,100333.00
2023-02-04T09:49:38.559Z,100338.00
2023-02-04T09:52:14.313Z,100335.00
2023-02-04T09:54:40.799Z,100341.00
2023-02-04T09:57:16.805Z,100339.00
2023-02-04T09:59:44.463Z,100332.00
2023-02-04T10:02:24.225Z,100325.00
2023-02-04T10:04:53.886Z,100336.00
2023-02-04T10:07:24.164Z,100352.00
2023-02-04T10:09:52.950Z,100348.00
2023-02-04T10:12:20.103Z,100342.00
2023-02-04T10:14:46.791Z,100340.00
2023-02-04T10:17:20.801Z,100348.00
2023-02-04T10:19:47.580Z,100348.00
2023-02-04T10:22:18.345Z,100341.00
2023-02-04T10:24:45.136Z,100356.00
2023-02-04T10:27:15.990Z,100361.00
2023-02-04T10:29:43.610Z,100352.00
2023-02-04T10:32:26.499Z,100350.00
2023-02-04T10:34:58.959Z,100368.00
2023-02-04T10:37:25.848Z,100362.00
2023-02-04T10:39:52.563Z,100362.00
2023-02-04T10:42:22.837Z,100357.00
2023-02-04T10:44:49.521Z,100363.00
2023-02-04T10:47:21.693Z,100361.00
2023-02-04T10:49:56.378Z,100359.00
2023-02-04T10:52:32.343Z,100360.00
2023-02-04T10:54:58.952Z,100350.00
2023-02-04T10:57:30.236Z,100356.00
2023-02-04T11:00:00.073Z,100352.00
2023-02-04T11:02:36.155Z,100355.00
2023-02-04T11:05:06.729Z,100353.00
2023-02-04T11:07:33.294Z,100359.00
2023-02-04T11:09:59.836Z,100352.00
2023-02-04T11:12:47.948Z,100335.00
2023-02-04T11:15:39.174Z,100348.00
2023-02-04T11:18:12.898Z,100345.00
2023-02-04T11:20:40.844Z,100338.00
2023-02-04T11:23:25.500Z,100341.00
2023-02-04T11:26:32.366Z,100343.00
2023-02-04T11:28:58.805Z,100343.00
2023-02-04T11:31:27.330Z,100344.00
2023-02-04T11:34:23.028Z,100351.00
2023-02-04T11:37:01.406Z,100350.00
2023-02-04T11:39:42.447Z,100351.00
2023-02-04T11:42:21.675Z,100356.00
2023-02-04T11:44:50.160Z,100360.00
2023-02-04T11:47:16.740Z,100359.00
2023-02-04T11:49:46.498Z,100355.00
2023-02-04T11:52:14.436Z,100354.00
2023-02-04T11:54:41.080Z,100357.00
2023-02-04T11:57:11.729Z,100358.00
2023-02-04T11:59:38.233Z,100353.00
2023-02-04T12:02:16.719Z,100347.00
2023-02-04T12:04:58.400Z,100346.00
2023-02-04T12:07:28.146Z,100337.00
2023-02-04T12:09:55.261Z,100341.00
2023-02-04T12:12:30.174Z,100340.00
2023-02-04T12:15:15.739Z,100343.00
2023-02-04T12:17:45.642Z,100337.00
2023-02-04T12:20:13.906Z,100336.00
2023-02-04T12:22:40.437Z,100345.00
2023-02-04T12:25:07.445Z,100350.00
2023-02-04T12:27:33.938Z,100350.00
2023-02-04T12:30:00.380Z,100344.00
2023-02-04T12:32:26.924Z,100341.00
2023-02-04T12:34:53.418Z,100346.00
2023-02-04T12:37:19.887Z,100351.00
2023-02-04T12:39:46.448Z,100357.00
2023-02-04T12:42:12.954Z,100359.00
2023-02-04T12:44:39.420Z,100358.00
2023-02-04T12:47:05.861Z,100348.00
2023-02-04T12:49:32.352Z,100352.00
2023-02-04T12:52:02.165Z,100346.00
2023-02-04T12:54:28.708Z,100358.00
2023-02-04T12:56:58.109Z,100356.00
2023-02-04T12:59:25.624Z,100356.00
2023-02-04T13:01:52.325Z,100362.00
2023-02-04T13:04:18.921Z,100358.00
2023-02-04T13:06:45.498Z,100372.00
2023-02-04T13:09:11.984Z,100355.00
2023-02-04T13:11:38.535Z,100350.00
2023-02-04T13:14:05.113Z,100364.00
2023-02-04T13:16:31.772Z,100366.00
2023-02-04T13:18:58.359Z,100356.00
2023-02-04T13:21:24.812Z,100357.00
2023-02-04T13:23:51.331Z,100353.00
2023-02-04T13:26:17.774Z,100360.00
2023-02-04T13:28:44.227Z,100365.00
2023-02-04T13:31:10.719Z,100366.00
2023-02-04T13:33:37.233Z,100368.00
2023-02-04T13:36:04.085Z,100376.00
2023-02-04T13:38:30.557Z,100369.00
2023-02-04T13:40:57.046Z,100365.00
2023-02-04T13:43:23.779Z,100354.00
2023-02-04T13:45:50.535Z,100362.00
2023-02-04T13:48:17.103Z,100358.00
2023-02-04T13:50:43.579Z,100358.00
2023-02-04T13:53:10.205Z,100361.00
2023-02-04T13:55:36.676Z,100360.00
2023-02-04T13:58:03.145Z,100364.00
2023-02-04T14:00:29.766Z,100356.00
2023-02-04T14:02:56.712Z,100376.00
2023-02-04T14:05:23.259Z,100361.00
2023-02-04T14:07:49.713Z,100367.00
2023-02-04T14:10:19.631Z,100354.00
2023-02-04T14:12:46.123Z,100367.00
2023-02-04T14:15:12.583Z,100362.00
2023-02-04T14:17:39.069Z,100364.00
2023-02-04T14:20:06.308Z,100364.00
2023-02-04T14:22:32.792Z,100360.00
2023-02-04T14:24:59.269Z,100364.00
2023-02-04T14:27:25.798Z,100359.00
2023-02-04T14:29:52.298Z,100355.00
2023-02-04T14:32:20.828Z,100359.00
2023-02-04T14:34:47.337Z,100362.00
2023-02-04T14:37:13.854Z,100365.00
2023-02-04T14:39:40.324Z,100357.00
2023-02-04T14:42:06.830Z,100355.00
2023-02-04T14:44:33.294Z,100357.00
2023-02-04T14:46:59.825Z,100358.00
2023-02-04T14:49:26.550Z,100357.00
2023-02-04T14:51:53.079Z,100359.00
2023-02-04T14:54:19.573Z,100360.00
2023-02-04T14:56:47.773Z,100364.00
2023-02-04T14:59:14.270Z,100365.00
2023-02-04T15:01:42.238Z,100363.00
2023-02-04T15:04:09.735Z,100383.00
2023-02-04T15:06:37.623Z,100377.00
2023-02-04T15:09:04.167Z,100382.00
2023-02-04T15:11:31.379Z,100373.00
2023-02-04T15:13:57.848Z,100371.00
2023-02-04T15:16:24.369Z,100371.00
2023-02-04T15:18:51.115Z,100371.00
2023-02-04T15:21:17.863Z,100371.00
2023-02-04T15:23:47.193Z,100366.00
2023-02-04T15:26:14.298Z,100368.00
2023-02-04T15:28:40.760Z,100363.00
2023-02-04T15:31:07.465Z,100367.00
2023-02-04T15:33:34.046Z,100372.00
2023-02-04T15:36:00.527Z,100377.00
2023-02-04T15:38:27.005Z,100380.00
2023-02-04T15:40:53.515Z,100381.00
2023-02-04T15:43:19.973Z,100382.00
2023-02-04T15:45:46.539Z,100372.00
2023-02-04T15:48:13.071Z,100379.00
2023-02-04T15:50:40.599Z,100391.00
2023-02-04T15:53:07.034Z,100394.00
2023-02-04T15:55:33.632Z,100387.00
2023-02-04T15:58:00.373Z,100393.00
2023-02-04T16:00:26.954Z,100399.00
2023-02-04T16:02:53.574Z,100398.00
2023-02-04T16:05:20.108Z,100398.00
2023-02-04T16:07:46.615Z,100405.00
2023-02-04T16:10:13.427Z,100404.00
2023-02-04T16:12:39.951Z,100410.00
2023-02-04T16:15:06.874Z,100403.00
2023-02-04T16:17:33.370Z,100411.00
2023-02-04T16:19:59.831Z,100416.00
2023-02-04T16:22:26.376Z,100426.00
2023-02-04T16:24:52.999Z,100431.00
2023-02-04T16:27:19.869Z,100434.00
2023-02-04T16:29:46.669Z,100427.00
2023-02-04T16:32:13.256Z,100430.00
2023-02-04T16:34:39.989Z,100422.00
2023-02-04T16:37:06.557Z,100427.00
2023-02-04T16:39:33.136Z,100424.00
2023-02-04T16:41:59.625Z,100426.00
2023-02-04T16:44:26.063Z,100431.00
2023-02-04T16:46:52.571Z,100426.00
2023-02-04T16:49:19.039Z,100436.00
2023-02-04T16:51:45.575Z,100435.00
2023-02-04T16:54:12.159Z,100445.00
2023-02-04T16:56:38.627Z,100441.00
2023-02-04T16:59:05.405Z,100450.00
2023-02-04T17:01:31.944Z,100446.00
2023-02-04T17:03:58.513Z,100447.00
2023-02-04T17:06:29.378Z,100454.00
2023-02-04T17:08:55.897Z,100465.00
2023-02-04T17:11:29.092Z,100460.00
2023-02-04T17:14:05.063Z,100449.00
2023-02-04T17:16:32.562Z,100443.00
2023-02-04T17:18:59.237Z,100441.00
2023-02-04T17:21:27.007Z,100450.00
2023-02-04T17:23:55.238Z,100450.00
2023-02-04T17:26:24.265Z,100448.00
2023-02-04T17:28:50.860Z,100461.00
2023-02-04T17:31:17.360Z,100452.00
2023-02-04T17:33:43.882Z,100447.00
2023-02-04T17:36:11.219Z,100447.00
2023-02-04T17:38:37.734Z,100443.00
2023-02-04T17:41:04.370Z,100450.00
2023-02-04T17:43:31.041Z,100446.00
2023-02-04T17:45:57.630Z,100449.00
2023-02-04T17:48:24.149Z,100450.00
2023-02-04T17:50:50.726Z,100448.00
2023-02-04T17:53:17.225Z,100456.00
2023-02-04T17:55:43.721Z,100457.00
2023-02-04T17:58:16.073Z,100455.00
2023-02-04T18:00:47.045Z,100468.00
2023-02-04T18:03:16.115Z,100468.00
2023-02-04T18:05:48.078Z,100470.00
2023-02-04T18:08:38.068Z,100470.00
2023-02-04T18:11:15.759Z,100467.00
2023-02-04T18:13:42.336Z,100475.00
2023-02-04T18:16:33.926Z,100471.00
2023-02-04T18:19:41.958Z,100471.00
2023-02-04T18:22:11.785Z,100474.00
2023-02-04T18:24:43.945Z,100477.00
2023-02-04T18:27:21.528Z,100466.00
2023-02-04T18:29:54.763Z,100462.00
2023-02-04T18:32:25.449Z,100459.00
2023-02-04T18:34:54.107Z,100462.00
2023-02-04T18:37:26.489Z,100470.00
2023-02-04T18:39:57.704Z,100455.00
2023-02-04T18:42:27.538Z,100455.00
2023-02-04T18:44:56.675Z,100466.00
2023-02-04T18:47:29.517Z,100466.00
2023-02-04T18:49:56.118Z,100472.00
2023-02-04T18:52:22.814Z,100464.00
2023-02-04T18:54:56.717Z,100467.00
2023-02-04T18:57:34.033Z,100463.00
2023-02-04T19:00:09.417Z,100469.00
2023-02-04T19:02:39.392Z,100467.00
2023-02-04T19:05:26.512Z,100475.00
2023-02-04T19:07:58.856Z,100478.00
2023-02-04T19:10:32.005Z,100471.00
2023-02-04T19:13:11.947Z,100480.00
2023-02-04T19:15:41.682Z,100469.00
2023-02-04T19:18:38.743Z,100476.00
2023-02-04T19:21:21.735Z,100473.00
2023-02-04T19:23:50.197Z,100473.00
2023-02-04T19:26:30.576Z,100471.00
2023-02-04T19:28:57.364Z,100481.00
2023-02-04T19:31:34.481Z,100488.00
2023-02-04T19:34:20.111Z,100485.00
2023-02-04T19:36:46.654Z,100476.00
2023-02-04T19:39:38.431Z,100476.00
2023-02-04T19:42:36.587Z,100478.00
2023-02-04T19:45:17.271Z,100476.00
2023-02-04T19:47:44.789Z,100487.00
2023-02-04T19:50:14.250Z,100480.00
2023-02-04T19:52:47.980Z,100475.00
2023-02-04T19:55:17.374Z,100476.00
2023-02-04T19:57:45.735Z,100481.00
2023-02-04T20:00:22.760Z,100474.00
2023-02-04T20:02:49.330Z,100477.00
2023-02-04T20:05:19.863Z,100478.00
2023-02-04T20:07:46.575Z,100480.00
2023-02-04T20:10:27.288Z,100475.00
2023-02-04T20:13:12.433Z,100478.00
2023-02-04T20:15:39.029Z,100475.00
2023-02-04T20:18:22.936Z,100467.00
2023-02-04T20:20:49.483Z,100476.00
2023-02-04T20:23:28.628Z,100481.00
2023-02-04T20:25:55.604Z,100473.00
2023-02-04T20:28:29.891Z,100479.00
2023-02-04T20:30:59.379Z,100479.00
2023-02-04T20:33:28.261Z,100482.00
2023-02-04T20:36:34.712Z,100485.00
2023-02-04T20:39:39.622Z,100483.00
2023-02-04T20:42:28.282Z,100493.00
2023-02-04T20:44:59.249Z,100490.00
2023-02-04T20:47:26.492Z,100505.00
2023-02-04T20:49:58.027Z,100506.00
2023-02-04T20:52:39.757Z,100507.00
2023-02-04T20:55:26.625Z,100511.00
2023-02-04T20:58:11.154Z,100508.00
2023-02-04T21:00:39.282Z,100504.00
2023-02-04T21:03:36.880Z,100505.00
2023-02-04T21:06:20.037Z,100504.00
2023-02-04T21:08:49.437Z,100504.00
2023-02-04T21:11:15.991Z,100501.00
2023-02-04T21:13:42.600Z,100500.00
2023-02-04T21:16:09.279Z,100502.00
2023-02-04T21:18:36.527Z,100501.00
2023-02-04T21:21:04.513Z,100497.00
2023-02-04T21:23:31.006Z,100495.00
2023-02-04T21:25:57.508Z,100506.00
2023-02-04T21:28:24.097Z,100516.00
2023-02-04T21:30:50.703Z,100503.00
2023-02-04T21:33:17.375Z,100498.00
2023-02-04T21:35:43.947Z,100504.00
2023-02-04T21:38:10.514Z,100494.00
2023-02-04T21:40:38.178Z,100494.00
2023-02-04T21:43:07.946Z,100497.00
2023-02-04T21:45:37.113Z,100491.00
2023-02-04T21:48:04.717Z,100493.00
2023-02-04T21:50:31.399Z,100488.00
2023-02-04T21:52:57.987Z,100486.00
2023-02-04T21:55:24.559Z,100493.00
2023-02-04T21:57:51.991Z,100496.00
2023-02-04T22:00:22.659Z,100502.00
2023-02-04T22:02:50.445Z,100502.00
2023-02-04T22:05:17.166Z,100494.00
2023-02-04T22:07:43.663Z,100500.00
2023-02-04T22:10:19.170Z,100499.00
2023-02-04T22:12:45.901Z,100502.00
2023-02-04T22:15:12.470Z,100496.00
2023-02-04T22:17:38.918Z,100499.00
2023-02-04T22:20:05.885Z,100493.00
2023-02-04T22:22:32.426Z,100489.00
2023-02-04T22:24:59.130Z,100506.00
2023-02-04T22:27:25.646Z,100495.00
2023-02-04T22:29:52.424Z,100501.00
2023-02-04T22:32:19.084Z,100497.00
2023-02-04T22:34:45.664Z,100503.00
2023-02-04T22:37:12.143Z,100493.00
2023-02-04T22:39:38.625Z,100483.00
2023-02-04T22:42:06.560Z,100480.00
2023-02-04T22:44:33.072Z,100486.00
2023-02-04T22:46:59.566Z,100489.00
2023-02-04T22:49:26.077Z,100486.00
2023-02-04T22:51:52.535Z,100497.00
2023-02-04T22:54:19.115Z,100492.00
2023-02-04T22:56:45.649Z,100492.00
2023-02-04T22:59:12.122Z,100501.00
2023-02-04T23:01:38.632Z,100496.00
2023-02-04T23:04:05.200Z,100498.00
2023-02-04T23:06:31.847Z,100500.00
2023-02-04T23:08:58.370Z,100490.00
2023-02-04T23:11:25.007Z,100505.00
2023-02-04T23:13:51.519Z,100502.00
2023-02-04T23:16:19.496Z,100504.00
2023-02-04T23:18:46.570Z,100499.00
2023-02-04T23:21:14.181Z,100502.00
2023-02-04T23:23:40.930Z,100501.00
2023-02-04T23:26:08.086Z,100499.00
2023-02-04T23:28:34.639Z,100503.00
2023-02-04T23:31:01.176Z,100496.00
2023-02-04T23:33:27.701Z,100492.00
2023-02-04T23:35:54.347Z,100494.00
2023-02-04T23:38:20.849Z,100493.00
2023-02-04T23:40:47.400Z,100498.00
2023-02-04T23:43:13.914Z,100497.00
2023-02-04T23:45:40.451Z,100500.00
2023-02-04T23:48:06.953Z,100498.00
2023-02-04T23:50:33.447Z,100500.00
2023-02-04T23:52:59.937Z,100497.00
2023-02-04T23:55:26.997Z,100496.00
2023-02-04T23:57:53.540Z,100496.00
